Time;durP1;ratioP1;P1;durP2;ratioP2;P2;SDS_P1;SDS_P2;PMS_P1;PMS_P2;Temp;Humidity;BMP_temperature;BMP_pressure;BME280_temperature;BME280_humidity;BME280_pressure;Samples;Min_cycle;Max_cycle;Signal;HPM_P1;HPM_P2
2023/11/10 00:01:02;;;;;;;12.40;3.80;;;;;;;;;;5034839;28;20232;-87
2023/11/10 00:03:29;;;;;;;12.03;3.30;;;;;;;;;;5035061;28;20247;-87
2023/11/10 00:05:56;;;;;;;14.53;4.07;;;;;;;;;;5035471;28;20283;-86
2023/11/10 00:08:26;;;;;;;15.47;4.07;;;;;;;;;;5035627;28;20196;-87
2023/11/10 00:10:58;;;;;;;10.77;3.50;;;;;;;;;;5035520;28;20204;-87
2023/11/10 00:13:30;;;;;;;13.17;4.10;;;;;;;;;;5035424;28;20204;-87
2023/11/10 00:16:00;;;;;;;11.20;3.30;;;;;;;;;;5034191;28;20254;-87
2023/11/10 00:18:27;;;;;;;9.90;2.80;;;;;;;;;;5035192;28;20581;-86
2023/11/10 00:21:00;;;;;;;12.70;2.93;;;;;;;;;;5035386;28;20202;-86
2023/11/10 00:23:36;;;;;;;9.17;3.07;;;;;;;;;;5034887;28;20335;-87
2023/11/10 00:26:04;;;;;;;15.30;3.97;;;;;;;;;;5035058;28;20204;-87
2023/11/10 00:28:43;;;;;;;11.73;2.63;;;;;;;;;;5034369;28;21061;-86
2023/11/10 00:31:10;;;;;;;9.53;3.20;;;;;;;;;;5034225;28;20331;-87
2023/11/10 00:33:37;;;;;;;14.00;3.30;;;;;;;;;;5034855;28;20240;-87
2023/11/10 00:36:11;;;;;;;8.97;2.60;;;;;;;;;;5034430;28;20200;-87
2023/11/10 00:41:20;;;;;;;14.93;2.70;;;;;;;;;;5033494;28;20204;-87
2023/11/10 00:43:49;;;;;;;9.93;2.40;;;;;;;;;;5034302;28;20242;-86
2023/11/10 00:46:17;;;;;;;11.37;2.37;;;;;;;;;;5034636;28;20215;-88
2023/11/10 00:48:44;;;;;;;11.17;2.27;;;;;;;;;;5034340;28;20284;-87
2023/11/10 00:51:17;;;;;;;7.70;2.20;;;;;;;;;;5034316;28;20208;-87
2023/11/10 00:53:48;;;;;;;11.03;2.13;;;;;;;;;;5034500;28;20204;-87
2023/11/10 00:56:16;;;;;;;7.10;1.93;;;;;;;;;;5033996;28;20204;-87
2023/11/10 00:58:46;;;;;;;14.97;2.30;;;;;;;;;;5034478;28;20204;-87
2023/11/10 01:01:15;;;;;;;11.73;2.10;;;;;;;;;;5033916;28;20199;-87
2023/11/10 01:03:42;;;;;;;10.33;2.10;;;;;;;;;;5033417;28;20784;-88
2023/11/10 01:06:10;;;;;;;16.33;1.93;;;;;;;;;;5034743;28;20201;-87
2023/11/10 01:08:38;;;;;;;8.57;1.77;;;;;;;;;;5034250;28;20255;-87
2023/11/10 01:11:05;;;;;;;7.80;2.27;;;;;;;;;;5033909;28;20184;-87
2023/11/10 01:13:34;;;;;;;9.87;2.03;;;;;;;;;;5033869;28;20200;-86
2023/11/10 01:16:02;;;;;;;14.30;2.83;;;;;;;;;;5035452;28;20208;-86
2023/11/10 01:18:31;;;;;;;10.90;2.43;;;;;;;;;;5033783;28;20287;-87
2023/11/10 01:20:59;;;;;;;12.17;2.60;;;;;;;;;;5034382;28;20284;-87
2023/11/10 01:23:26;;;;;;;7.63;2.30;;;;;;;;;;5033935;28;20246;-87
2023/11/10 01:25:54;;;;;;;10.63;2.57;;;;;;;;;;5033562;28;20287;-87
2023/11/10 01:28:21;;;;;;;9.10;2.30;;;;;;;;;;5033712;28;20209;-87
2023/11/10 01:30:51;;;;;;;11.50;2.63;;;;;;;;;;5033881;28;20232;-87
2023/11/10 01:33:18;;;;;;;8.67;2.20;;;;;;;;;;5033719;28;20204;-86
2023/11/10 01:35:47;;;;;;;13.70;2.63;;;;;;;;;;5033476;28;20571;-87
2023/11/10 01:38:15;;;;;;;9.83;2.53;;;;;;;;;;5033574;28;20289;-86
2023/11/10 01:40:44;;;;;;;10.33;2.60;;;;;;;;;;5033498;28;20235;-86
2023/11/10 01:43:11;;;;;;;11.83;2.20;;;;;;;;;;5032835;28;20315;-86
2023/11/10 01:45:38;;;;;;;12.00;2.20;;;;;;;;;;5033195;28;20205;-86
2023/11/10 01:48:07;;;;;;;10.27;2.00;;;;;;;;;;5033167;28;20207;-86
2023/11/10 01:50:34;;;;;;;12.30;2.47;;;;;;;;;;5032971;28;20208;-86
2023/11/10 01:53:03;;;;;;;10.43;2.33;;;;;;;;;;5033901;28;20240;-86
2023/11/10 01:55:32;;;;;;;10.33;2.27;;;;;;;;;;5033027;28;20196;-86
2023/11/10 01:58:00;;;;;;;11.67;2.07;;;;;;;;;;5032786;28;20279;-86
2023/11/10 02:00:30;;;;;;;11.97;2.03;;;;;;;;;;5033132;28;20196;-86
2023/11/10 02:02:58;;;;;;;13.33;2.23;;;;;;;;;;5033002;28;20242;-86
2023/11/10 02:05:25;;;;;;;13.10;2.20;;;;;;;;;;5032955;28;20556;-86
2023/11/10 02:07:53;;;;;;;10.20;1.50;;;;;;;;;;5032762;28;20323;-86
2023/11/10 02:10:22;;;;;;;7.33;1.73;;;;;;;;;;5032926;28;20208;-86
2023/11/10 02:12:53;;;;;;;9.73;1.97;;;;;;;;;;5032136;28;20204;-86
2023/11/10 02:15:21;;;;;;;10.27;2.10;;;;;;;;;;5029891;28;20219;-86
2023/11/10 02:17:48;;;;;;;11.50;1.93;;;;;;;;;;5012932;28;20262;-85
2023/11/10 02:20:15;;;;;;;7.93;1.80;;;;;;;;;;5013252;28;20226;-87
2023/11/10 02:22:43;;;;;;;5.57;1.53;;;;;;;;;;5013456;28;20204;-87
2023/11/10 02:25:15;;;;;;;6.70;1.80;;;;;;;;;;5012778;28;20323;-86
2023/11/10 02:27:42;;;;;;;9.70;1.70;;;;;;;;;;5012675;28;20670;-86
2023/11/10 02:30:10;;;;;;;9.60;1.70;;;;;;;;;;5012917;28;20312;-87
2023/11/10 02:32:38;;;;;;;11.17;2.00;;;;;;;;;;5013312;28;20607;-86
2023/11/10 02:35:07;;;;;;;10.83;2.30;;;;;;;;;;5032163;28;20711;-85
2023/11/10 02:37:34;;;;;;;9.13;2.03;;;;;;;;;;5032921;28;20728;-87
2023/11/10 02:40:02;;;;;;;8.53;2.10;;;;;;;;;;5032731;28;20200;-87
2023/11/10 02:42:30;;;;;;;7.60;2.00;;;;;;;;;;5032692;28;20196;-86
2023/11/10 02:44:58;;;;;;;10.80;2.37;;;;;;;;;;5032762;28;20224;-87
2023/11/10 02:47:25;;;;;;;9.27;1.67;;;;;;;;;;5032993;28;20208;-87
2023/11/10 02:49:52;;;;;;;13.43;2.17;;;;;;;;;;5032442;28;20250;-86
2023/11/10 02:52:19;;;;;;;11.00;2.50;;;;;;;;;;5032714;28;20201;-87
2023/11/10 02:54:46;;;;;;;10.17;2.20;;;;;;;;;;5032795;28;20304;-87
2023/11/10 02:57:14;;;;;;;11.10;1.90;;;;;;;;;;5031795;28;20224;-86
2023/11/10 02:59:42;;;;;;;9.13;2.00;;;;;;;;;;5032567;28;20273;-87
2023/11/10 03:02:11;;;;;;;11.50;2.33;;;;;;;;;;5032431;28;20196;-88
2023/11/10 03:04:40;;;;;;;7.73;1.70;;;;;;;;;;5032684;28;20649;-88
2023/11/10 03:07:08;;;;;;;9.37;1.63;;;;;;;;;;5032498;28;20329;-88
2023/11/10 03:09:35;;;;;;;11.53;1.90;;;;;;;;;;5032310;28;20236;-88
2023/11/10 03:12:03;;;;;;;13.33;2.00;;;;;;;;;;5032608;28;20255;-87
2023/11/10 03:14:30;;;;;;;11.57;1.87;;;;;;;;;;5032602;28;20204;-87
2023/11/10 03:16:59;;;;;;;9.67;1.90;;;;;;;;;;5032392;28;20239;-87
2023/11/10 03:19:26;;;;;;;13.63;2.00;;;;;;;;;;5032872;28;20266;-88
2023/11/10 03:21:53;;;;;;;14.83;2.27;;;;;;;;;;5031805;28;20197;-87
2023/11/10 03:24:20;;;;;;;10.27;2.10;;;;;;;;;;5021477;28;20657;-87
2023/11/10 03:26:48;;;;;;;11.73;2.00;;;;;;;;;;5034475;28;20209;-86
2023/11/10 03:29:15;;;;;;;14.57;2.30;;;;;;;;;;5035861;28;20220;-86
2023/11/10 03:31:42;;;;;;;8.80;1.87;;;;;;;;;;5035489;28;20259;-86
2023/11/10 03:34:11;;;;;;;10.50;2.00;;;;;;;;;;5035817;28;20212;-87
2023/11/10 03:36:38;;;;;;;10.83;2.13;;;;;;;;;;5035338;28;20201;-88
2023/11/10 03:39:05;;;;;;;13.87;2.17;;;;;;;;;;5035356;28;20228;-86
2023/11/10 03:41:32;;;;;;;13.13;2.37;;;;;;;;;;5035482;28;20294;-86
2023/11/10 03:44:00;;;;;;;10.83;1.80;;;;;;;;;;5035809;28;20262;-87
2023/11/10 03:46:27;;;;;;;10.67;1.97;;;;;;;;;;5035606;28;20288;-87
2023/11/10 03:48:54;;;;;;;12.47;2.07;;;;;;;;;;5035904;28;20201;-88
2023/11/10 03:51:23;;;;;;;14.00;2.57;;;;;;;;;;5035369;28;20196;-87
2023/11/10 03:53:50;;;;;;;11.27;2.20;;;;;;;;;;5035133;28;20212;-86
2023/11/10 03:56:17;;;;;;;10.57;2.20;;;;;;;;;;5035402;28;20204;-87
2023/11/10 03:58:45;;;;;;;10.07;1.80;;;;;;;;;;5034966;28;20665;-87
2023/11/10 04:01:13;;;;;;;15.20;2.43;;;;;;;;;;5035337;28;20250;-87
2023/11/10 04:03:40;;;;;;;16.37;2.57;;;;;;;;;;5035342;28;20239;-87
2023/11/10 04:06:07;;;;;;;14.97;2.60;;;;;;;;;;5035710;28;20274;-87
2023/11/10 04:08:36;;;;;;;10.80;2.27;;;;;;;;;;5034731;28;20227;-87
2023/11/10 04:11:03;;;;;;;13.67;2.60;;;;;;;;;;5035318;28;20279;-88
2023/11/10 04:13:30;;;;;;;15.90;2.40;;;;;;;;;;5035164;28;20215;-86
2023/11/10 04:15:58;;;;;;;19.43;3.27;;;;;;;;;;5035216;28;20204;-86
2023/11/10 04:18:27;;;;;;;12.50;2.63;;;;;;;;;;5034646;28;20209;-85
2023/11/10 04:20:56;;;;;;;14.17;2.97;;;;;;;;;;5034653;28;20209;-87
2023/11/10 04:23:23;;;;;;;16.27;2.90;;;;;;;;;;5034282;28;20295;-87
2023/11/10 04:25:52;;;;;;;14.83;2.87;;;;;;;;;;5034517;28;20231;-87
2023/11/10 04:28:19;;;;;;;17.17;3.63;;;;;;;;;;5034843;28;20282;-87
2023/11/10 04:30:47;;;;;;;17.53;3.23;;;;;;;;;;5034625;28;20233;-87
2023/11/10 04:33:14;;;;;;;12.23;2.87;;;;;;;;;;5034887;28;20292;-86
2023/11/10 04:35:41;;;;;;;11.37;2.80;;;;;;;;;;5034525;28;20205;-86
2023/11/10 04:38:09;;;;;;;15.63;3.10;;;;;;;;;;5034034;28;20200;-87
2023/11/10 04:40:37;;;;;;;14.70;2.83;;;;;;;;;;5034784;28;20701;-88
2023/11/10 04:43:06;;;;;;;16.80;3.93;;;;;;;;;;5034189;28;20723;-87
2023/11/10 04:45:33;;;;;;;16.30;3.30;;;;;;;;;;5034354;28;20653;-88
2023/11/10 04:48:01;;;;;;;19.13;2.87;;;;;;;;;;5033877;28;20700;-86
2023/11/10 04:50:28;;;;;;;15.40;3.53;;;;;;;;;;5034127;28;20205;-87
2023/11/10 04:52:56;;;;;;;15.97;3.90;;;;;;;;;;5033986;28;20224;-88
2023/11/10 04:55:24;;;;;;;10.37;2.43;;;;;;;;;;5034481;28;20199;-88
2023/11/10 04:57:51;;;;;;;15.57;2.77;;;;;;;;;;5034560;28;20614;-87
2023/11/10 05:00:23;;;;;;;16.90;3.00;;;;;;;;;;5034211;28;20553;-87
2023/11/10 05:02:51;;;;;;;17.83;3.23;;;;;;;;;;5034429;28;20267;-88
2023/11/10 05:05:19;;;;;;;16.97;3.30;;;;;;;;;;5034288;28;20694;-87
2023/11/10 05:07:52;;;;;;;21.30;3.80;;;;;;;;;;5033661;28;20220;-87
2023/11/10 05:10:19;;;;;;;21.70;3.30;;;;;;;;;;5033989;28;20251;-87
2023/11/10 05:12:47;;;;;;;14.67;2.77;;;;;;;;;;5033803;28;20208;-87
2023/11/10 05:15:14;;;;;;;15.20;2.70;;;;;;;;;;5033640;28;20196;-88
2023/11/10 05:17:43;;;;;;;21.93;3.13;;;;;;;;;;5033704;28;20236;-87
2023/11/10 05:20:11;;;;;;;19.07;3.57;;;;;;;;;;5033695;28;20632;-86
2023/11/10 05:22:42;;;;;;;16.20;2.50;;;;;;;;;;5033849;28;20685;-86
2023/11/10 05:25:12;;;;;;;16.47;3.57;;;;;;;;;;5033590;28;20236;-87
2023/11/10 05:27:43;;;;;;;18.60;3.03;;;;;;;;;;5033540;28;20239;-87
2023/11/10 05:30:12;;;;;;;21.60;3.40;;;;;;;;;;5033789;28;20544;-87
2023/11/10 05:32:47;;;;;;;20.20;2.93;;;;;;;;;;5033228;28;20254;-87
2023/11/10 05:35:23;;;;;;;15.13;2.57;;;;;;;;;;5033104;28;20617;-88
2023/11/10 05:37:56;;;;;;;18.83;2.63;;;;;;;;;;5033251;28;20223;-87
2023/11/10 05:40:24;;;;;;;19.63;2.67;;;;;;;;;;5033188;28;20201;-86
2023/11/10 05:42:53;;;;;;;17.87;2.70;;;;;;;;;;5033440;28;20206;-87
2023/11/10 05:45:20;;;;;;;13.87;2.80;;;;;;;;;;5033381;28;20693;-87
2023/11/10 05:47:47;;;;;;;17.70;2.50;;;;;;;;;;5033663;28;20208;-88
2023/11/10 05:50:17;;;;;;;18.20;2.57;;;;;;;;;;5033261;28;20208;-89
2023/11/10 05:52:45;;;;;;;12.43;2.57;;;;;;;;;;5033950;28;20574;-89
2023/11/10 05:55:13;;;;;;;12.57;1.93;;;;;;;;;;5033441;28;20212;-89
2023/11/10 05:57:40;;;;;;;15.47;2.40;;;;;;;;;;5033181;28;20621;-88
2023/11/10 06:00:08;;;;;;;13.10;2.73;;;;;;;;;;5033735;28;20192;-88
2023/11/10 06:02:35;;;;;;;18.03;2.73;;;;;;;;;;5033288;28;20212;-87
2023/11/10 06:05:04;;;;;;;14.77;3.13;;;;;;;;;;5033195;28;20643;-88
2023/11/10 06:07:33;;;;;;;17.97;3.17;;;;;;;;;;5033509;28;20205;-89
2023/11/10 06:10:00;;;;;;;21.43;2.73;;;;;;;;;;5032663;28;20200;-91
2023/11/10 06:12:27;;;;;;;21.20;3.53;;;;;;;;;;5035419;28;20262;-96
2023/11/10 06:14:55;;;;;;;17.03;3.07;;;;;;;;;;5038495;28;20212;-96
2023/11/10 06:17:22;;;;;;;15.47;3.10;;;;;;;;;;5038578;28;20200;-96
2023/11/10 06:19:50;;;;;;;16.23;3.27;;;;;;;;;;5046411;28;20183;-96
2023/11/10 06:22:19;;;;;;;16.83;2.97;;;;;;;;;;5043895;28;20204;-94
2023/11/10 06:24:49;;;;;;;17.60;2.93;;;;;;;;;;5035546;28;20228;-93
2023/11/10 06:27:16;;;;;;;13.97;3.07;;;;;;;;;;5036461;28;20630;-94
2023/11/10 06:29:43;;;;;;;13.80;2.77;;;;;;;;;;5036106;28;20204;-91
2023/11/10 06:32:12;;;;;;;17.90;3.57;;;;;;;;;;5036110;28;20263;-96
2023/11/10 06:34:39;;;;;;;19.30;3.20;;;;;;;;;;5028724;28;20280;-95
2023/11/10 06:37:07;;;;;;;14.70;3.03;;;;;;;;;;5020613;28;20201;-95
2023/11/10 06:39:34;;;;;;;18.80;3.70;;;;;;;;;;5015088;28;20219;-95
2023/11/10 06:42:03;;;;;;;17.80;2.90;;;;;;;;;;5015734;28;20241;-93
2023/11/10 06:44:31;;;;;;;16.13;3.40;;;;;;;;;;5018655;28;20989;-96
2023/11/10 06:46:59;;;;;;;20.90;3.40;;;;;;;;;;5018151;28;20205;-96
2023/11/10 06:49:28;;;;;;;17.60;2.63;;;;;;;;;;5018759;28;20228;-95
2023/11/10 06:51:56;;;;;;;11.27;2.43;;;;;;;;;;5018881;28;20236;-95
2023/11/10 06:54:24;;;;;;;15.60;2.47;;;;;;;;;;5018851;28;20229;-96
2023/11/10 06:56:53;;;;;;;11.90;2.57;;;;;;;;;;5019990;28;20216;-96
2023/11/10 06:59:28;;;;;;;13.17;2.77;;;;;;;;;;5021111;28;20256;-96
2023/11/10 07:01:57;;;;;;;16.40;2.63;;;;;;;;;;5005390;28;20207;-96
2023/11/10 07:04:26;;;;;;;14.27;2.93;;;;;;;;;;5024283;28;20197;-96
2023/11/10 07:06:54;;;;;;;14.77;2.90;;;;;;;;;;5024121;28;20294;-96
2023/11/10 07:09:25;;;;;;;16.10;2.73;;;;;;;;;;5027134;28;20246;-96
2023/11/10 07:11:53;;;;;;;13.73;3.00;;;;;;;;;;5028673;28;20227;-96
2023/11/10 07:14:20;;;;;;;15.77;2.83;;;;;;;;;;5030028;28;20204;-96
2023/11/10 07:16:50;;;;;;;15.77;2.87;;;;;;;;;;5028105;28;20227;-96
2023/11/10 07:19:20;;;;;;;12.47;2.27;;;;;;;;;;5025783;28;20288;-95
2023/11/10 07:21:48;;;;;;;15.07;2.57;;;;;;;;;;5022980;28;20197;-96
2023/11/10 07:24:16;;;;;;;11.30;2.33;;;;;;;;;;5022467;28;20233;-95
2023/11/10 07:26:44;;;;;;;13.50;2.30;;;;;;;;;;5022106;28;20278;-96
2023/11/10 07:29:12;;;;;;;15.17;3.00;;;;;;;;;;5022511;28;20197;-96
2023/11/10 07:31:39;;;;;;;14.90;3.03;;;;;;;;;;5023019;28;20787;-96
2023/11/10 07:34:10;;;;;;;14.50;3.20;;;;;;;;;;5022334;28;20212;-95
2023/11/10 07:36:39;;;;;;;9.43;2.77;;;;;;;;;;5022345;28;20212;-96
2023/11/10 07:39:06;;;;;;;11.13;2.57;;;;;;;;;;5019694;28;20201;-94
2023/11/10 07:41:37;;;;;;;13.33;2.27;;;;;;;;;;5019831;28;20613;-95
2023/11/10 07:44:05;;;;;;;12.43;2.13;;;;;;;;;;5019911;28;20205;-95
2023/11/10 07:46:33;;;;;;;10.63;2.40;;;;;;;;;;5019589;28;20225;-95
2023/11/10 07:49:00;;;;;;;10.03;2.47;;;;;;;;;;5019402;28;20205;-95
2023/11/10 07:51:29;;;;;;;9.40;2.40;;;;;;;;;;5019458;28;20201;-94
2023/11/10 07:53:56;;;;;;;10.10;2.60;;;;;;;;;;5019376;28;20204;-95
2023/11/10 07:56:24;;;;;;;10.83;2.30;;;;;;;;;;5019416;28;20189;-96
2023/11/10 07:58:51;;;;;;;12.03;2.77;;;;;;;;;;5018313;28;20205;-96
2023/11/10 08:01:19;;;;;;;10.00;2.77;;;;;;;;;;5019269;28;20638;-96
2023/11/10 08:03:47;;;;;;;11.27;3.50;;;;;;;;;;5018650;28;20201;-94
2023/11/10 08:06:14;;;;;;;12.93;3.57;;;;;;;;;;5018808;28;20767;-94
2023/11/10 08:08:43;;;;;;;8.87;2.43;;;;;;;;;;5017560;28;20197;-95
2023/11/10 08:11:11;;;;;;;9.80;2.80;;;;;;;;;;5016326;28;20248;-95
2023/11/10 08:13:38;;;;;;;8.27;2.30;;;;;;;;;;5016949;28;20243;-95
2023/11/10 08:16:06;;;;;;;14.37;2.70;;;;;;;;;;5016486;28;20281;-95
2023/11/10 08:18:34;;;;;;;15.30;3.40;;;;;;;;;;5016497;28;20212;-93
2023/11/10 08:21:01;;;;;;;8.00;2.50;;;;;;;;;;5016382;28;20725;-94
2023/11/10 08:23:29;;;;;;;12.40;2.60;;;;;;;;;;5016225;28;20197;-92
2023/11/10 08:25:57;;;;;;;10.77;2.63;;;;;;;;;;5016072;28;20259;-93
2023/11/10 08:28:24;;;;;;;12.47;3.60;;;;;;;;;;5015816;28;20717;-94
2023/11/10 08:30:52;;;;;;;10.40;2.92;;;;;;;;;;5015424;28;20320;-93
2023/11/10 08:33:19;;;;;;;14.00;3.83;;;;;;;;;;5015588;28;20205;-92
2023/11/10 08:35:46;;;;;;;14.63;4.28;;;;;;;;;;5050686;28;20711;-92
2023/11/10 08:38:14;;;;;;;14.13;3.58;;;;;;;;;;5055337;28;20223;-92
2023/11/10 08:40:41;;;;;;;10.93;3.13;;;;;;;;;;5055622;28;20203;-92
2023/11/10 08:43:10;;;;;;;14.70;3.47;;;;;;;;;;5055096;28;20283;-92
2023/11/10 08:45:37;;;;;;;8.85;3.20;;;;;;;;;;5055719;28;20227;-91
2023/11/10 08:48:04;;;;;;;10.55;2.42;;;;;;;;;;5055628;28;20231;-91
2023/11/10 08:50:32;;;;;;;8.88;2.25;;;;;;;;;;5054982;28;20204;-91
2023/11/10 08:52:59;;;;;;;7.72;1.80;;;;;;;;;;5054689;28;20200;-91
2023/11/10 08:55:27;;;;;;;6.97;2.33;;;;;;;;;;5055124;28;20207;-92
2023/11/10 08:57:54;;;;;;;7.03;2.08;;;;;;;;;;5057883;28;20707;-90
2023/11/10 09:00:24;;;;;;;6.75;2.25;;;;;;;;;;5060255;28;20260;-90
2023/11/10 09:02:52;;;;;;;9.00;2.85;;;;;;;;;;5060239;28;20200;-90
2023/11/10 09:05:22;;;;;;;9.02;2.47;;;;;;;;;;5059303;28;20207;-91
2023/11/10 09:07:49;;;;;;;10.18;2.40;;;;;;;;;;5057622;28;20276;-90
2023/11/10 09:10:17;;;;;;;8.88;2.17;;;;;;;;;;5055408;28;20234;-91
2023/11/10 09:12:48;;;;;;;7.13;2.53;;;;;;;;;;5054526;28;20203;-91
2023/11/10 09:15:15;;;;;;;14.00;2.40;;;;;;;;;;5054530;28;20234;-90
2023/11/10 09:17:44;;;;;;;8.50;2.67;;;;;;;;;;5055220;28;20219;-91
2023/11/10 09:20:13;;;;;;;9.95;2.20;;;;;;;;;;5054898;28;20199;-90
2023/11/10 09:22:40;;;;;;;11.02;2.78;;;;;;;;;;5054351;28;20200;-90
2023/11/10 09:25:13;;;;;;;12.38;2.63;;;;;;;;;;5054005;28;20230;-90
2023/11/10 09:27:40;;;;;;;9.23;2.28;;;;;;;;;;5053915;28;20212;-91
2023/11/10 09:30:08;;;;;;;11.85;2.95;;;;;;;;;;5053814;28;20200;-90
2023/11/10 09:32:36;;;;;;;8.02;1.70;;;;;;;;;;5053903;28;20294;-89
2023/11/10 09:35:05;;;;;;;10.10;2.03;;;;;;;;;;5042586;28;20211;-91
2023/11/10 09:37:32;;;;;;;12.25;2.30;;;;;;;;;;5034061;28;20287;-90
2023/11/10 09:40:00;;;;;;;13.20;2.42;;;;;;;;;;5033936;28;20736;-91
2023/11/10 09:42:28;;;;;;;10.65;2.63;;;;;;;;;;5033875;28;20196;-89
2023/11/10 09:44:56;;;;;;;10.15;2.25;;;;;;;;;;5033918;28;20201;-91
2023/11/10 09:47:25;;;;;;;8.55;2.47;;;;;;;;;;5033455;28;20738;-90
2023/11/10 09:49:53;;;;;;;7.88;2.13;;;;;;;;;;5033928;28;20685;-90
2023/11/10 09:52:22;;;;;;;11.95;2.28;;;;;;;;;;5033951;28;20705;-89
2023/11/10 09:54:51;;;;;;;11.30;2.60;;;;;;;;;;5016649;28;20379;-89
2023/11/10 09:57:18;;;;;;;8.43;1.88;;;;;;;;;;5033379;28;20283;-90
2023/11/10 09:59:46;;;;;;;11.57;2.60;;;;;;;;;;5033894;28;20639;-89
2023/11/10 10:02:14;;;;;;;13.98;2.72;;;;;;;;;;5033656;28;20243;-87
2023/11/10 10:04:43;;;;;;;8.10;1.92;;;;;;;;;;5033964;28;20721;-89
2023/11/10 10:07:11;;;;;;;9.05;2.22;;;;;;;;;;5033604;28;20697;-89
2023/11/10 10:09:40;;;;;;;7.72;1.92;;;;;;;;;;5033738;28;20258;-89
2023/11/10 10:12:08;;;;;;;11.23;2.13;;;;;;;;;;5033820;28;20287;-88
2023/11/10 10:14:35;;;;;;;13.00;1.92;;;;;;;;;;5033275;28;20231;-89
2023/11/10 10:17:03;;;;;;;9.25;2.03;;;;;;;;;;5033686;28;20283;-89
2023/11/10 10:19:30;;;;;;;15.13;2.88;;;;;;;;;;5033428;28;20623;-88
2023/11/10 10:21:59;;;;;;;11.18;2.33;;;;;;;;;;5033646;28;20255;-88
2023/11/10 10:24:26;;;;;;;9.27;2.40;;;;;;;;;;5033618;28;20223;-88
2023/11/10 10:26:56;;;;;;;12.07;2.45;;;;;;;;;;5033855;28;20310;-89
2023/11/10 10:29:23;;;;;;;10.25;2.63;;;;;;;;;;5033843;28;20281;-89
2023/11/10 10:31:51;;;;;;;9.90;2.30;;;;;;;;;;5033328;28;20294;-89
2023/11/10 10:34:18;;;;;;;11.32;2.20;;;;;;;;;;5033808;28;20208;-89
2023/11/10 10:36:45;;;;;;;11.93;2.55;;;;;;;;;;5037602;28;20284;-88
2023/11/10 10:39:17;;;;;;;10.93;2.38;;;;;;;;;;5036917;28;20208;-89
2023/11/10 10:41:46;;;;;;;11.02;2.50;;;;;;;;;;5037712;28;20204;-89
2023/11/10 10:44:16;;;;;;;9.95;2.83;;;;;;;;;;5038079;28;20206;-89
2023/11/10 10:46:44;;;;;;;13.93;2.30;;;;;;;;;;5039028;28;20236;-90
2023/11/10 10:49:14;;;;;;;11.43;2.42;;;;;;;;;;5042337;28;20231;-90
2023/11/10 10:51:41;;;;;;;9.20;2.20;;;;;;;;;;5043356;28;20192;-89
2023/11/10 10:54:10;;;;;;;13.02;3.08;;;;;;;;;;5041863;28;20252;-89
2023/11/10 10:56:39;;;;;;;10.88;2.50;;;;;;;;;;5043252;28;20211;-90
2023/11/10 10:59:07;;;;;;;9.90;2.45;;;;;;;;;;5037847;28;20204;-90
2023/11/10 11:01:36;;;;;;;14.95;3.30;;;;;;;;;;5037668;28;20258;-90
2023/11/10 11:04:14;;;;;;;11.30;2.60;;;;;;;;;;5037195;28;20254;-90
2023/11/10 11:06:46;;;;;;;12.23;2.50;;;;;;;;;;5037238;28;20220;-91
2023/11/10 11:09:28;;;;;;;10.40;2.58;;;;;;;;;;5039427;28;20676;-91
2023/11/10 11:12:15;;;;;;;13.45;4.22;;;;;;;;;;5038368;28;20204;-91
2023/11/10 11:14:48;;;;;;;11.68;2.42;;;;;;;;;;5038399;28;20196;-92
2023/11/10 11:17:35;;;;;;;16.38;3.38;;;;;;;;;;5038251;28;20204;-91
2023/11/10 11:20:04;;;;;;;12.93;2.42;;;;;;;;;;5037675;28;20196;-91
2023/11/10 11:22:32;;;;;;;13.68;2.90;;;;;;;;;;5036651;28;20204;-90
2023/11/10 11:25:06;;;;;;;11.05;2.20;;;;;;;;;;5036822;28;20204;-91
2023/11/10 11:27:35;;;;;;;17.20;3.10;;;;;;;;;;5036361;28;20239;-92
2023/11/10 11:30:08;;;;;;;10.70;3.40;;;;;;;;;;5036770;28;20650;-91
2023/11/10 11:32:39;;;;;;;11.00;2.75;;;;;;;;;;5036624;28;20205;-91
2023/11/10 11:35:06;;;;;;;13.83;3.03;;;;;;;;;;5049000;28;20711;-91
2023/11/10 11:37:34;;;;;;;12.17;2.90;;;;;;;;;;5056154;28;20291;-91
2023/11/10 11:40:03;;;;;;;13.07;2.57;;;;;;;;;;5056334;28;20214;-93
2023/11/10 11:42:36;;;;;;;12.67;2.47;;;;;;;;;;5041857;28;20586;-90
2023/11/10 11:45:11;;;;;;;14.40;2.40;;;;;;;;;;5036247;28;20570;-92
2023/11/10 11:47:40;;;;;;;12.25;2.53;;;;;;;;;;5035474;28;20314;-92
2023/11/10 11:50:09;;;;;;;15.23;3.03;;;;;;;;;;5036498;28;20227;-91
2023/11/10 11:52:36;;;;;;;10.60;2.40;;;;;;;;;;5036315;28;20293;-91
2023/11/10 11:55:04;;;;;;;10.93;2.43;;;;;;;;;;5036390;28;20227;-90
2023/11/10 11:57:34;;;;;;;12.67;3.00;;;;;;;;;;5036128;28;20201;-93
2023/11/10 12:00:02;;;;;;;9.80;1.80;;;;;;;;;;5036073;28;20204;-92
2023/11/10 12:02:29;;;;;;;8.97;2.17;;;;;;;;;;5036191;28;20207;-92
2023/11/10 12:04:58;;;;;;;11.10;2.33;;;;;;;;;;5035985;28;20300;-92
2023/11/10 12:07:26;;;;;;;12.50;2.00;;;;;;;;;;5035887;28;20238;-91
2023/11/10 12:09:53;;;;;;;10.83;2.13;;;;;;;;;;5036366;28;20943;-92
2023/11/10 12:12:21;;;;;;;10.90;2.50;;;;;;;;;;5036467;28;20284;-92
2023/11/10 12:14:50;;;;;;;10.57;1.70;;;;;;;;;;5036085;28;20253;-93
2023/11/10 12:17:17;;;;;;;11.23;1.83;;;;;;;;;;5036229;28;20232;-91
2023/11/10 12:19:45;;;;;;;10.10;1.90;;;;;;;;;;5035865;28;20669;-93
2023/11/10 12:22:13;;;;;;;11.13;2.23;;;;;;;;;;5035532;28;20258;-92
2023/11/10 12:24:40;;;;;;;10.57;2.30;;;;;;;;;;5035772;28;20235;-92
2023/11/10 12:27:09;;;;;;;11.60;2.20;;;;;;;;;;5035538;28;20235;-91
2023/11/10 12:29:36;;;;;;;11.57;2.40;;;;;;;;;;5035104;28;20669;-93
2023/11/10 12:32:04;;;;;;;10.30;2.43;;;;;;;;;;5035281;28;20263;-92
2023/11/10 12:34:31;;;;;;;14.73;2.60;;;;;;;;;;5035511;28;20209;-93
2023/11/10 12:37:04;;;;;;;13.17;2.20;;;;;;;;;;5035821;28;20646;-92
2023/11/10 12:39:34;;;;;;;15.30;2.40;;;;;;;;;;5036007;28;20204;-91
2023/11/10 12:42:01;;;;;;;9.73;2.43;;;;;;;;;;5035911;28;20200;-92
2023/11/10 12:44:29;;;;;;;8.30;1.73;;;;;;;;;;5035894;28;20299;-92
2023/11/10 12:46:56;;;;;;;11.47;2.33;;;;;;;;;;5035350;28;20205;-92
2023/11/10 12:49:24;;;;;;;15.23;2.30;;;;;;;;;;5035601;28;20204;-93
2023/11/10 12:51:52;;;;;;;10.07;2.20;;;;;;;;;;5035167;28;20212;-92
2023/11/10 12:54:22;;;;;;;12.13;2.57;;;;;;;;;;5035066;28;20256;-92
2023/11/10 12:56:50;;;;;;;11.20;2.03;;;;;;;;;;5035416;28;20580;-92
2023/11/10 12:59:25;;;;;;;10.83;2.20;;;;;;;;;;5035359;28;20283;-92
2023/11/10 13:01:53;;;;;;;11.83;2.40;;;;;;;;;;5035064;28;20188;-93
2023/11/10 13:04:22;;;;;;;10.37;2.17;;;;;;;;;;5034489;28;20725;-93
2023/11/10 13:06:49;;;;;;;8.87;2.00;;;;;;;;;;5035071;28;20220;-91
2023/11/10 13:09:18;;;;;;;11.30;2.03;;;;;;;;;;5034727;28;20200;-91
2023/11/10 13:11:46;;;;;;;15.63;4.90;;;;;;;;;;5034391;28;20211;-92
2023/11/10 13:14:15;;;;;;;9.25;2.60;;;;;;;;;;5034795;28;20262;-91
2023/11/10 13:16:42;;;;;;;11.93;2.85;;;;;;;;;;5034947;28;20201;-92
2023/11/10 13:19:09;;;;;;;8.60;2.00;;;;;;;;;;5034787;28;20223;-92
2023/11/10 13:21:37;;;;;;;9.60;1.50;;;;;;;;;;5034883;28;20291;-92
2023/11/10 13:24:04;;;;;;;10.00;2.00;;;;;;;;;;5034674;28;20259;-92
2023/11/10 13:26:31;;;;;;;11.27;1.87;;;;;;;;;;5034197;28;20575;-91
2023/11/10 13:28:59;;;;;;;10.97;1.63;;;;;;;;;;5034356;28;20291;-92
2023/11/10 13:31:28;;;;;;;9.37;1.73;;;;;;;;;;5034197;28;20773;-92
2023/11/10 13:33:56;;;;;;;11.07;2.07;;;;;;;;;;5034225;28;20196;-92
2023/11/10 13:36:24;;;;;;;11.13;1.97;;;;;;;;;;5034471;28;20200;-92
2023/11/10 13:38:52;;;;;;;9.40;1.87;;;;;;;;;;5034078;28;20303;-92
2023/11/10 13:41:19;;;;;;;8.27;1.83;;;;;;;;;;5034171;28;20201;-91
2023/11/10 13:43:46;;;;;;;7.97;1.50;;;;;;;;;;5034331;28;20669;-91
2023/11/10 13:46:13;;;;;;;8.90;1.77;;;;;;;;;;5034272;28;20286;-92
2023/11/10 13:48:45;;;;;;;9.00;1.70;;;;;;;;;;5033445;28;20235;-91
2023/11/10 13:51:16;;;;;;;6.90;1.60;;;;;;;;;;5034654;28;21012;-92
2023/11/10 13:53:44;;;;;;;9.03;2.00;;;;;;;;;;5034549;28;20262;-92
2023/11/10 13:56:11;;;;;;;11.50;1.80;;;;;;;;;;5034379;28;20235;-92
2023/11/10 13:58:38;;;;;;;8.83;1.67;;;;;;;;;;5034188;28;20274;-91
2023/11/10 14:01:08;;;;;;;5.10;1.63;;;;;;;;;;5033838;28;20283;-92
2023/11/10 14:03:35;;;;;;;7.10;1.90;;;;;;;;;;5033336;28;20793;-91
2023/11/10 14:06:08;;;;;;;11.13;2.20;;;;;;;;;;5034125;28;20657;-92
2023/11/10 14:08:38;;;;;;;6.77;1.87;;;;;;;;;;5033639;28;20267;-92
2023/11/10 14:11:08;;;;;;;5.83;1.60;;;;;;;;;;5033475;28;20284;-91
2023/11/10 14:13:35;;;;;;;6.00;1.87;;;;;;;;;;5034086;28;20208;-92
2023/11/10 14:16:05;;;;;;;11.30;2.17;;;;;;;;;;5033958;28;20231;-92
2023/11/10 14:18:33;;;;;;;6.93;1.90;;;;;;;;;;5033662;28;20207;-92
2023/11/10 14:21:01;;;;;;;7.87;1.60;;;;;;;;;;5033974;28;20290;-91
2023/11/10 14:23:30;;;;;;;10.67;1.70;;;;;;;;;;5033772;28;20251;-92
2023/11/10 14:26:00;;;;;;;9.80;1.67;;;;;;;;;;5034037;28;20200;-93
2023/11/10 14:28:27;;;;;;;8.20;1.60;;;;;;;;;;5033743;28;20230;-92
2023/11/10 14:30:56;;;;;;;8.43;1.50;;;;;;;;;;5033634;28;20236;-92
2023/11/10 14:33:25;;;;;;;8.37;1.70;;;;;;;;;;5033713;28;20227;-92
2023/11/10 14:35:52;;;;;;;9.50;1.77;;;;;;;;;;5033853;28;20218;-93
2023/11/10 14:38:20;;;;;;;6.30;1.63;;;;;;;;;;5033974;28;20232;-92
2023/11/10 14:40:49;;;;;;;11.67;1.67;;;;;;;;;;5033756;28;20196;-92
2023/11/10 14:43:19;;;;;;;12.83;2.27;;;;;;;;;;5033391;28;20200;-93